sensor_id;sensor_type;location;lat;lon;timestamp;pressure;altitude;pressure_sealevel;temperature
63689;BMP280;54895;40.928;14.480;2023-06-19T00:02:13;101434.53;;;28.01
63689;BMP280;54895;40.928;14.480;2023-06-19T00:04:41;101432.41;;;28.17
63689;BMP280;54895;40.928;14.480;2023-06-19T00:07:07;101432.88;;;28.12
63689;BMP280;54895;40.928;14.480;2023-06-19T00:09:34;101438.00;;;28.19
63689;BMP280;54895;40.928;14.480;2023-06-19T00:12:02;101443.13;;;28.11
63689;BMP280;54895;40.928;14.480;2023-06-19T00:15:18;101440.47;;;28.13
63689;BMP280;54895;40.928;14.480;2023-06-19T00:18:06;101436.41;;;28.14
63689;BMP280;54895;40.928;14.480;2023-06-19T00:21:10;101437.53;;;28.07
63689;BMP280;54895;40.928;14.480;2023-06-19T00:24:10;101442.91;;;28.23
63689;BMP280;54895;40.928;14.480;2023-06-19T00:26:37;101439.38;;;28.20
63689;BMP280;54895;40.928;14.480;2023-06-19T00:29:29;101437.31;;;28.03
63689;BMP280;54895;40.928;14.480;2023-06-19T00:31:57;101434.16;;;27.93
63689;BMP280;54895;40.928;14.480;2023-06-19T00:34:23;101442.13;;;28.55
63689;BMP280;54895;40.928;14.480;2023-06-19T00:36:51;101453.09;;;27.87
63689;BMP280;54895;40.928;14.480;2023-06-19T00:39:23;101446.56;;;27.79
63689;BMP280;54895;40.928;14.480;2023-06-19T00:41:51;101451.22;;;27.92
63689;BMP280;54895;40.928;14.480;2023-06-19T00:44:17;101441.78;;;27.95
63689;BMP280;54895;40.928;14.480;2023-06-19T00:46:44;101439.16;;;27.81
63689;BMP280;54895;40.928;14.480;2023-06-19T00:49:11;101440.41;;;27.78
63689;BMP280;54895;40.928;14.480;2023-06-19T00:51:38;101443.75;;;27.77
63689;BMP280;54895;40.928;14.480;2023-06-19T00:54:04;101446.56;;;27.79
63689;BMP280;54895;40.928;14.480;2023-06-19T00:56:32;101440.25;;;27.74
63689;BMP280;54895;40.928;14.480;2023-06-19T01:01:27;101444.25;;;27.89
63689;BMP280;54895;40.928;14.480;2023-06-19T01:03:54;101440.16;;;28.05
63689;BMP280;54895;40.928;14.480;2023-06-19T01:06:23;101444.72;;;28.16
63689;BMP280;54895;40.928;14.480;2023-06-19T01:09:05;101439.84;;;27.97
63689;BMP280;54895;40.928;14.480;2023-06-19T01:11:44;101432.19;;;28.11
63689;BMP280;54895;40.928;14.480;2023-06-19T01:14:39;101435.00;;;28.13
63689;BMP280;54895;40.928;14.480;2023-06-19T01:17:11;101438.44;;;28.14
63689;BMP280;54895;40.928;14.480;2023-06-19T01:19:38;101439.69;;;28.28
63689;BMP280;54895;40.928;14.480;2023-06-19T01:22:05;101432.50;;;28.19
63689;BMP280;54895;40.928;14.480;2023-06-19T01:24:31;101434.41;;;27.99
63689;BMP280;54895;40.928;14.480;2023-06-19T01:26:57;101445.28;;;27.64
63689;BMP280;54895;40.928;14.480;2023-06-19T01:29:32;101434.53;;;27.68
63689;BMP280;54895;40.928;14.480;2023-06-19T01:35:04;101440.91;;;27.75
63689;BMP280;54895;40.928;14.480;2023-06-19T01:37:32;101434.88;;;27.15
63689;BMP280;54895;40.928;14.480;2023-06-19T01:40:02;101431.09;;;27.37
63689;BMP280;54895;40.928;14.480;2023-06-19T01:42:32;101431.09;;;27.37
63689;BMP280;54895;40.928;14.480;2023-06-19T01:45:06;101428.81;;;27.01
63689;BMP280;54895;40.928;14.480;2023-06-19T01:47:37;101419.38;;;26.59
63689;BMP280;54895;40.928;14.480;2023-06-19T01:50:18;101426.00;;;26.70
63689;BMP280;54895;40.928;14.480;2023-06-19T01:52:45;101425.38;;;27.16
63689;BMP280;54895;40.928;14.480;2023-06-19T01:55:13;101425.47;;;27.18
63689;BMP280;54895;40.928;14.480;2023-06-19T01:57:41;101428.13;;;26.87
63689;BMP280;54895;40.928;14.480;2023-06-19T02:00:09;101423.50;;;27.05
63689;BMP280;54895;40.928;14.480;2023-06-19T02:02:42;101419.00;;;26.96
63689;BMP280;54895;40.928;14.480;2023-06-19T02:05:13;101421.09;;;26.82
63689;BMP280;54895;40.928;14.480;2023-06-19T02:07:39;101423.66;;;26.78
63689;BMP280;54895;40.928;14.480;2023-06-19T02:18:31;101427.59;;;26.46
63689;BMP280;54895;40.928;14.480;2023-06-19T02:21:22;101414.88;;;26.37
63689;BMP280;54895;40.928;14.480;2023-06-19T02:23:48;101421.47;;;26.32
63689;BMP280;54895;40.928;14.480;2023-06-19T02:26:16;101427.22;;;26.67
63689;BMP280;54895;40.928;14.480;2023-06-19T02:31:29;101419.53;;;26.48
63689;BMP280;54895;40.928;14.480;2023-06-19T02:33:57;101421.84;;;26.40
63689;BMP280;54895;40.928;14.480;2023-06-19T02:36:23;101423.53;;;26.47
63689;BMP280;54895;40.928;14.480;2023-06-19T02:38:50;101435.72;;;26.30
63689;BMP280;54895;40.928;14.480;2023-06-19T02:41:16;101426.06;;;26.43
63689;BMP280;54895;40.928;14.480;2023-06-19T02:43:44;101435.59;;;26.71
63689;BMP280;54895;40.928;14.480;2023-06-19T02:46:14;101447.94;;;26.72
63689;BMP280;54895;40.928;14.480;2023-06-19T02:48:41;101443.84;;;26.57
63689;BMP280;54895;40.928;14.480;2023-06-19T02:51:07;101451.50;;;26.32
63689;BMP280;54895;40.928;14.480;2023-06-19T02:53:33;101441.84;;;26.58
63689;BMP280;54895;40.928;14.480;2023-06-19T02:56:00;101445.16;;;26.56
63689;BMP280;54895;40.928;14.480;2023-06-19T02:58:26;101448.13;;;26.76
63689;BMP280;54895;40.928;14.480;2023-06-19T03:00:55;101456.59;;;26.82
63689;BMP280;54895;40.928;14.480;2023-06-19T03:03:21;101457.91;;;26.52
63689;BMP280;54895;40.928;14.480;2023-06-19T03:05:50;101455.34;;;26.00
63689;BMP280;54895;40.928;14.480;2023-06-19T03:08:17;101452.09;;;26.17
63689;BMP280;54895;40.928;14.480;2023-06-19T03:10:43;101466.25;;;26.14
63689;BMP280;54895;40.928;14.480;2023-06-19T03:13:13;101462.34;;;26.17
63689;BMP280;54895;40.928;14.480;2023-06-19T03:15:39;101474.34;;;26.25
63689;BMP280;54895;40.928;14.480;2023-06-19T03:18:06;101466.81;;;26.39
63689;BMP280;54895;40.928;14.480;2023-06-19T03:20:35;101475.16;;;26.70
63689;BMP280;54895;40.928;14.480;2023-06-19T03:23:01;101476.19;;;26.92
63689;BMP280;54895;40.928;14.480;2023-06-19T03:25:28;101480.78;;;26.31
63689;BMP280;54895;40.928;14.480;2023-06-19T03:31:49;101493.22;;;26.08
63689;BMP280;54895;40.928;14.480;2023-06-19T03:34:18;101489.09;;;25.93
63689;BMP280;54895;40.928;14.480;2023-06-19T03:36:44;101486.25;;;25.91
63689;BMP280;54895;40.928;14.480;2023-06-19T03:39:11;101496.69;;;25.56
63689;BMP280;54895;40.928;14.480;2023-06-19T03:41:38;101500.78;;;25.82
63689;BMP280;54895;40.928;14.480;2023-06-19T03:44:06;101502.53;;;26.03
63689;BMP280;54895;40.928;14.480;2023-06-19T03:46:41;101504.66;;;26.04
63689;BMP280;54895;40.928;14.480;2023-06-19T03:49:12;101509.09;;;26.11
63689;BMP280;54895;40.928;14.480;2023-06-19T03:51:39;101509.81;;;26.25
63689;BMP280;54895;40.928;14.480;2023-06-19T03:54:06;101527.56;;;26.66
63689;BMP280;54895;40.928;14.480;2023-06-19T03:56:33;101520.75;;;26.81
63689;BMP280;54895;40.928;14.480;2023-06-19T03:59:00;101525.72;;;27.29
63689;BMP280;54895;40.928;14.480;2023-06-19T04:01:27;101525.44;;;27.23
63689;BMP280;54895;40.928;14.480;2023-06-19T04:03:54;101521.81;;;26.47
63689;BMP280;54895;40.928;14.480;2023-06-19T04:06:20;101522.59;;;26.63
63689;BMP280;54895;40.928;14.480;2023-06-19T04:08:47;101522.41;;;26.59
63689;BMP280;54895;40.928;14.480;2023-06-19T04:11:13;101525.25;;;26.61
63689;BMP280;54895;40.928;14.480;2023-06-19T04:13:40;101521.44;;;26.81
63689;BMP280;54895;40.928;14.480;2023-06-19T04:16:06;101527.09;;;26.85
63689;BMP280;54895;40.928;14.480;2023-06-19T04:18:33;101531.19;;;27.00
63689;BMP280;54895;40.928;14.480;2023-06-19T04:20:59;101522.31;;;27.15
63689;BMP280;54895;40.928;14.480;2023-06-19T04:23:25;101532.25;;;27.52
63689;BMP280;54895;40.928;14.480;2023-06-19T04:25:52;101527.13;;;27.60
63689;BMP280;54895;40.928;14.480;2023-06-19T04:32:00;101528.63;;;27.63
63689;BMP280;54895;40.928;14.480;2023-06-19T04:34:29;101534.09;;;27.63
63689;BMP280;54895;40.928;14.480;2023-06-19T04:36:55;101526.50;;;27.46
63689;BMP280;54895;40.928;14.480;2023-06-19T04:39:24;101534.81;;;27.64
63689;BMP280;54895;40.928;14.480;2023-06-19T04:41:51;101551.72;;;27.45
63689;BMP280;54895;40.928;14.480;2023-06-19T04:44:17;101544.34;;;27.63
63689;BMP280;54895;40.928;14.480;2023-06-19T04:46:43;101547.34;;;27.84
63689;BMP280;54895;40.928;14.480;2023-06-19T04:49:10;101546.78;;;28.03
63689;BMP280;54895;40.928;14.480;2023-06-19T04:51:36;101543.28;;;27.85
63689;BMP280;54895;40.928;14.480;2023-06-19T04:54:02;101545.53;;;28.06
63689;BMP280;54895;40.928;14.480;2023-06-19T04:56:29;101540.06;;;28.06
63689;BMP280;54895;40.928;14.480;2023-06-19T04:58:55;101540.91;;;28.26
63689;BMP280;54895;40.928;14.480;2023-06-19T05:01:26;101546.34;;;28.42
63689;BMP280;54895;40.928;14.480;2023-06-19T05:03:56;101549.06;;;28.24
63689;BMP280;54895;40.928;14.480;2023-06-19T05:06:23;101554.84;;;28.32
63689;BMP280;54895;40.928;14.480;2023-06-19T05:08:49;101565.44;;;28.57
63689;BMP280;54895;40.928;14.480;2023-06-19T05:11:16;101556.84;;;28.64
63689;BMP280;54895;40.928;14.480;2023-06-19T05:13:42;101555.66;;;28.87
63689;BMP280;54895;40.928;14.480;2023-06-19T05:16:09;101562.16;;;29.13
63689;BMP280;54895;40.928;14.480;2023-06-19T05:18:35;101567.06;;;29.34
63689;BMP280;54895;40.928;14.480;2023-06-19T05:21:01;101568.16;;;29.27
63689;BMP280;54895;40.928;14.480;2023-06-19T05:23:28;101564.31;;;29.70
63689;BMP280;54895;40.928;14.480;2023-06-19T05:25:54;101570.16;;;29.44
63689;BMP280;54895;40.928;14.480;2023-06-19T05:31:59;101572.03;;;29.95
63689;BMP280;54895;40.928;14.480;2023-06-19T05:34:29;101580.22;;;30.34
63689;BMP280;54895;40.928;14.480;2023-06-19T05:36:56;101581.28;;;30.25
63689;BMP280;54895;40.928;14.480;2023-06-19T05:39:23;101584.16;;;30.29
63689;BMP280;54895;40.928;14.480;2023-06-19T05:41:49;101588.94;;;30.50
63689;BMP280;54895;40.928;14.480;2023-06-19T05:44:16;101588.31;;;30.73
63689;BMP280;54895;40.928;14.480;2023-06-19T05:46:42;101593.63;;;31.12
63689;BMP280;54895;40.928;14.480;2023-06-19T05:49:09;101590.03;;;31.54
63689;BMP280;54895;40.928;14.480;2023-06-19T05:51:35;101598.09;;;31.73
63689;BMP280;54895;40.928;14.480;2023-06-19T05:54:02;101594.84;;;32.06
63689;BMP280;54895;40.928;14.480;2023-06-19T05:56:30;101594.97;;;32.10
63689;BMP280;54895;40.928;14.480;2023-06-19T05:58:59;101598.22;;;32.03
63689;BMP280;54895;40.928;14.480;2023-06-19T06:01:26;101595.16;;;32.18
63689;BMP280;54895;40.928;14.480;2023-06-19T06:03:56;101599.44;;;32.25
63689;BMP280;54895;40.928;14.480;2023-06-19T06:06:23;101597.09;;;32.41
63689;BMP280;54895;40.928;14.480;2023-06-19T06:08:50;101600.72;;;31.93
63689;BMP280;54895;40.928;14.480;2023-06-19T06:11:21;101590.94;;;32.15
63689;BMP280;54895;40.928;14.480;2023-06-19T06:13:48;101586.16;;;32.45
63689;BMP280;54895;40.928;14.480;2023-06-19T06:16:25;101592.59;;;31.73
63689;BMP280;54895;40.928;14.480;2023-06-19T06:18:51;101597.66;;;32.08
63689;BMP280;54895;40.928;14.480;2023-06-19T06:21:18;101582.88;;;32.23
63689;BMP280;54895;40.928;14.480;2023-06-19T06:23:44;101596.94;;;32.35
63689;BMP280;54895;40.928;14.480;2023-06-19T06:26:11;101593.72;;;32.44
63689;BMP280;54895;40.928;14.480;2023-06-19T06:32:06;101599.22;;;33.05
63689;BMP280;54895;40.928;14.480;2023-06-19T06:34:33;101602.72;;;33.10
63689;BMP280;54895;40.928;14.480;2023-06-19T06:37:00;101600.34;;;33.27
63689;BMP280;54895;40.928;14.480;2023-06-19T06:39:27;101605.06;;;32.90
63689;BMP280;54895;40.928;14.480;2023-06-19T06:41:54;101602.31;;;32.90
63689;BMP280;54895;40.928;14.480;2023-06-19T06:44:20;101602.06;;;32.78
63689;BMP280;54895;40.928;14.480;2023-06-19T06:46:46;101599.06;;;32.99
63689;BMP280;54895;40.928;14.480;2023-06-19T06:49:13;101591.88;;;33.18
63689;BMP280;54895;40.928;14.480;2023-06-19T06:51:39;101598.19;;;33.22
63689;BMP280;54895;40.928;14.480;2023-06-19T06:54:06;101599.59;;;32.92
63689;BMP280;54895;40.928;14.480;2023-06-19T06:56:32;101590.09;;;33.32
63689;BMP280;54895;40.928;14.480;2023-06-19T06:58:59;101598.72;;;33.50
63689;BMP280;54895;40.928;14.480;2023-06-19T07:01:25;101604.56;;;33.30
63689;BMP280;54895;40.928;14.480;2023-06-19T07:03:51;101609.34;;;33.65
63689;BMP280;54895;40.928;14.480;2023-06-19T07:06:18;101600.69;;;33.43
63689;BMP280;54895;40.928;14.480;2023-06-19T07:08:44;101605.72;;;33.96
63689;BMP280;54895;40.928;14.480;2023-06-19T07:11:13;101596.84;;;34.45
63689;BMP280;54895;40.928;14.480;2023-06-19T07:13:40;101592.56;;;34.36
63689;BMP280;54895;40.928;14.480;2023-06-19T07:16:07;101595.78;;;34.20
63689;BMP280;54895;40.928;14.480;2023-06-19T07:18:33;101595.47;;;34.46
63689;BMP280;54895;40.928;14.480;2023-06-19T07:21:06;101594.34;;;34.65
63689;BMP280;54895;40.928;14.480;2023-06-19T07:23:35;101595.25;;;34.81
63689;BMP280;54895;40.928;14.480;2023-06-19T07:26:01;101592.03;;;34.98
63689;BMP280;54895;40.928;14.480;2023-06-19T07:31:58;101601.81;;;35.76
63689;BMP280;54895;40.928;14.480;2023-06-19T07:34:24;101597.03;;;35.83
63689;BMP280;54895;40.928;14.480;2023-06-19T07:36:51;101602.09;;;35.33
63689;BMP280;54895;40.928;14.480;2023-06-19T07:39:17;101590.88;;;35.17
63689;BMP280;54895;40.928;14.480;2023-06-19T07:41:43;101590.66;;;35.65
63689;BMP280;54895;40.928;14.480;2023-06-19T07:44:10;101583.09;;;35.04
63689;BMP280;54895;40.928;14.480;2023-06-19T07:46:36;101592.47;;;35.36
63689;BMP280;54895;40.928;14.480;2023-06-19T07:49:03;101596.00;;;34.86
63689;BMP280;54895;40.928;14.480;2023-06-19T07:51:29;101597.94;;;34.26
63689;BMP280;54895;40.928;14.480;2023-06-19T07:53:56;101595.47;;;34.46
63689;BMP280;54895;40.928;14.480;2023-06-19T07:56:22;101597.47;;;34.90
63689;BMP280;54895;40.928;14.480;2023-06-19T07:58:50;101599.78;;;34.59
63689;BMP280;54895;40.928;14.480;2023-06-19T08:01:16;101596.28;;;34.54
63689;BMP280;54895;40.928;14.480;2023-06-19T08:03:43;101605.81;;;34.43
63689;BMP280;54895;40.928;14.480;2023-06-19T08:06:09;101600.81;;;34.83
63689;BMP280;54895;40.928;14.480;2023-06-19T08:08:35;101604.91;;;34.29
63689;BMP280;54895;40.928;14.480;2023-06-19T08:11:01;101607.66;;;33.86
63689;BMP280;54895;40.928;14.480;2023-06-19T08:13:28;101606.09;;;33.39
63689;BMP280;54895;40.928;14.480;2023-06-19T08:15:54;101605.09;;;33.58
63689;BMP280;54895;40.928;14.480;2023-06-19T08:18:20;101603.19;;;34.08
63689;BMP280;54895;40.928;14.480;2023-06-19T08:20:47;101612.34;;;34.66
63689;BMP280;54895;40.928;14.480;2023-06-19T08:23:13;101615.94;;;35.35
63689;BMP280;54895;40.928;14.480;2023-06-19T08:25:39;101606.81;;;35.96
63689;BMP280;54895;40.928;14.480;2023-06-19T08:31:53;101611.13;;;36.19
63689;BMP280;54895;40.928;14.480;2023-06-19T08:34:19;101610.91;;;35.87
63689;BMP280;54895;40.928;14.480;2023-06-19T08:36:46;101608.59;;;36.52
63689;BMP280;54895;40.928;14.480;2023-06-19T08:39:12;101614.88;;;36.61
63689;BMP280;54895;40.928;14.480;2023-06-19T08:41:38;101620.13;;;36.11
63689;BMP280;54895;40.928;14.480;2023-06-19T08:44:06;101622.00;;;35.87
63689;BMP280;54895;40.928;14.480;2023-06-19T08:46:33;101624.97;;;36.13
63689;BMP280;54895;40.928;14.480;2023-06-19T08:49:00;101609.75;;;36.18
63689;BMP280;54895;40.928;14.480;2023-06-19T08:51:27;101623.41;;;35.92
63689;BMP280;54895;40.928;14.480;2023-06-19T08:54:01;101618.16;;;36.30
63689;BMP280;54895;40.928;14.480;2023-06-19T08:56:27;101617.41;;;36.23
63689;BMP280;54895;40.928;14.480;2023-06-19T08:58:53;101608.41;;;36.21
63689;BMP280;54895;40.928;14.480;2023-06-19T09:01:19;101605.72;;;36.37
63689;BMP280;54895;40.928;14.480;2023-06-19T09:03:46;101597.56;;;36.72
63689;BMP280;54895;40.928;14.480;2023-06-19T09:06:18;101600.19;;;36.39
63689;BMP280;54895;40.928;14.480;2023-06-19T09:08:44;101597.31;;;36.21
63689;BMP280;54895;40.928;14.480;2023-06-19T09:11:11;101604.16;;;36.12
63689;BMP280;54895;40.928;14.480;2023-06-19T09:13:37;101602.53;;;37.02
63689;BMP280;54895;40.928;14.480;2023-06-19T09:16:07;101595.50;;;36.71
63689;BMP280;54895;40.928;14.480;2023-06-19T09:18:45;101592.03;;;36.70
63689;BMP280;54895;40.928;14.480;2023-06-19T09:21:16;101588.69;;;37.25
63689;BMP280;54895;40.928;14.480;2023-06-19T09:23:45;101580.97;;;36.92
63689;BMP280;54895;40.928;14.480;2023-06-19T09:26:16;101574.78;;;37.04
63689;BMP280;54895;40.928;14.480;2023-06-19T09:32:19;101575.31;;;36.56
63689;BMP280;54895;40.928;14.480;2023-06-19T09:34:47;101571.28;;;36.89
63689;BMP280;54895;40.928;14.480;2023-06-19T09:37:15;101560.88;;;37.04
63689;BMP280;54895;40.928;14.480;2023-06-19T09:39:42;101571.34;;;37.57
63689;BMP280;54895;40.928;14.480;2023-06-19T09:42:13;101561.63;;;37.48
63689;BMP280;54895;40.928;14.480;2023-06-19T09:44:42;101553.25;;;37.91
63689;BMP280;54895;40.928;14.480;2023-06-19T09:47:18;101551.47;;;38.84
63689;BMP280;54895;40.928;14.480;2023-06-19T09:49:53;101555.47;;;39.09
63689;BMP280;54895;40.928;14.480;2023-06-19T09:52:21;101557.59;;;39.02
63689;BMP280;54895;40.928;14.480;2023-06-19T09:55:04;101558.66;;;38.35
63689;BMP280;54895;40.928;14.480;2023-06-19T09:57:32;101555.13;;;38.49
63689;BMP280;54895;40.928;14.480;2023-06-19T10:00:00;101557.41;;;37.94
63689;BMP280;54895;40.928;14.480;2023-06-19T10:02:43;101560.25;;;37.63
63689;BMP280;54895;40.928;14.480;2023-06-19T10:05:10;101558.78;;;38.09
63689;BMP280;54895;40.928;14.480;2023-06-19T10:07:45;101563.50;;;38.43
63689;BMP280;54895;40.928;14.480;2023-06-19T10:10:23;101561.81;;;38.97
63689;BMP280;54895;40.928;14.480;2023-06-19T10:12:50;101564.94;;;39.43
63689;BMP280;54895;40.928;14.480;2023-06-19T10:18:01;101564.63;;;39.75
63689;BMP280;54895;40.928;14.480;2023-06-19T10:20:33;101560.66;;;39.52
63689;BMP280;54895;40.928;14.480;2023-06-19T10:25:32;101570.94;;;38.84
63689;BMP280;54895;40.928;14.480;2023-06-19T10:27:59;101566.88;;;38.63
63689;BMP280;54895;40.928;14.480;2023-06-19T10:30:28;101565.28;;;39.00
63689;BMP280;54895;40.928;14.480;2023-06-19T10:32:55;101568.28;;;40.20
63689;BMP280;54895;40.928;14.480;2023-06-19T10:35:23;101570.69;;;39.94
63689;BMP280;54895;40.928;14.480;2023-06-19T10:37:50;101575.78;;;39.75
63689;BMP280;54895;40.928;14.480;2023-06-19T10:40:17;101574.34;;;39.78
63689;BMP280;54895;40.928;14.480;2023-06-19T10:42:43;101583.22;;;39.23
63689;BMP280;54895;40.928;14.480;2023-06-19T10:45:11;101576.22;;;37.60
63689;BMP280;54895;40.928;14.480;2023-06-19T10:47:39;101575.50;;;37.82
63689;BMP280;54895;40.928;14.480;2023-06-19T10:50:13;101582.44;;;37.35
63689;BMP280;54895;40.928;14.480;2023-06-19T10:52:45;101582.41;;;38.08
63689;BMP280;54895;40.928;14.480;2023-06-19T10:55:14;101579.63;;;38.02
63689;BMP280;54895;40.928;14.480;2023-06-19T10:57:44;101587.16;;;38.40
63689;BMP280;54895;40.928;14.480;2023-06-19T11:00:11;101577.50;;;38.25
63689;BMP280;54895;40.928;14.480;2023-06-19T11:02:47;101583.81;;;38.05
63689;BMP280;54895;40.928;14.480;2023-06-19T11:05:14;101587.19;;;38.32
63689;BMP280;54895;40.928;14.480;2023-06-19T11:07:40;101586.03;;;39.19
63689;BMP280;54895;40.928;14.480;2023-06-19T11:10:07;101580.50;;;39.11
63689;BMP280;54895;40.928;14.480;2023-06-19T11:12:33;101573.97;;;39.48
63689;BMP280;54895;40.928;14.480;2023-06-19T11:15:03;101580.72;;;38.75
63689;BMP280;54895;40.928;14.480;2023-06-19T11:17:30;101576.16;;;38.00
63689;BMP280;54895;40.928;14.480;2023-06-19T11:19:57;101582.47;;;37.77
63689;BMP280;54895;40.928;14.480;2023-06-19T11:22:36;101582.25;;;38.50
63689;BMP280;54895;40.928;14.480;2023-06-19T11:25:04;101584.44;;;38.26
63689;BMP280;54895;40.928;14.480;2023-06-19T11:27:30;101586.66;;;37.56
63689;BMP280;54895;40.928;14.480;2023-06-19T11:30:00;101581.03;;;37.91
63689;BMP280;54895;40.928;14.480;2023-06-19T11:32:31;101571.34;;;37.71
63689;BMP280;54895;40.928;14.480;2023-06-19T11:35:05;101569.88;;;38.13
63689;BMP280;54895;40.928;14.480;2023-06-19T11:37:33;101574.06;;;38.02
63689;BMP280;54895;40.928;14.480;2023-06-19T11:40:01;101571.19;;;38.40
63689;BMP280;54895;40.928;14.480;2023-06-19T11:42:31;101578.25;;;38.01
63689;BMP280;54895;40.928;14.480;2023-06-19T11:45:03;101565.41;;;38.80
63689;BMP280;54895;40.928;14.480;2023-06-19T11:47:33;101568.94;;;38.66
63689;BMP280;54895;40.928;14.480;2023-06-19T11:49:59;101565.69;;;38.22
63689;BMP280;54895;40.928;14.480;2023-06-19T11:52:29;101571.91;;;38.27
63689;BMP280;54895;40.928;14.480;2023-06-19T11:54:56;101564.25;;;38.31
63689;BMP280;54895;40.928;14.480;2023-06-19T11:57:23;101567.72;;;38.36
63689;BMP280;54895;40.928;14.480;2023-06-19T11:59:49;101562.94;;;38.10
63689;BMP280;54895;40.928;14.480;2023-06-19T12:02:15;101568.53;;;37.79
63689;BMP280;54895;40.928;14.480;2023-06-19T12:04:41;101562.22;;;38.18
63689;BMP280;54895;40.928;14.480;2023-06-19T12:07:08;101558.41;;;38.87
63689;BMP280;54895;40.928;14.480;2023-06-19T12:09:34;101560.69;;;38.51
63689;BMP280;54895;40.928;14.480;2023-06-19T12:12:01;101561.47;;;38.33
63689;BMP280;54895;40.928;14.480;2023-06-19T12:14:27;101551.31;;;39.04
63689;BMP280;54895;40.928;14.480;2023-06-19T12:16:53;101540.16;;;39.10
63689;BMP280;54895;40.928;14.480;2023-06-19T12:19:20;101556.16;;;39.85
63689;BMP280;54895;40.928;14.480;2023-06-19T12:21:47;101551.66;;;40.12
63689;BMP280;54895;40.928;14.480;2023-06-19T12:24:13;101551.28;;;40.40
63689;BMP280;54895;40.928;14.480;2023-06-19T12:26:39;101552.34;;;40.12
63689;BMP280;54895;40.928;14.480;2023-06-19T12:32:49;101549.44;;;39.62
63689;BMP280;54895;40.928;14.480;2023-06-19T12:35:15;101540.34;;;38.86
63689;BMP280;54895;40.928;14.480;2023-06-19T12:37:42;101550.78;;;39.65
63689;BMP280;54895;40.928;14.480;2023-06-19T12:40:09;101543.03;;;40.32
63689;BMP280;54895;40.928;14.480;2023-06-19T12:42:36;101541.63;;;39.75
63689;BMP280;54895;40.928;14.480;2023-06-19T12:45:04;101535.34;;;39.74
63689;BMP280;54895;40.928;14.480;2023-06-19T12:47:30;101536.19;;;38.79
63689;BMP280;54895;40.928;14.480;2023-06-19T12:49:56;101535.88;;;39.23
63689;BMP280;54895;40.928;14.480;2023-06-19T12:52:41;101535.22;;;39.86
63689;BMP280;54895;40.928;14.480;2023-06-19T12:55:08;101534.13;;;40.67
63689;BMP280;54895;40.928;14.480;2023-06-19T12:57:34;101528.25;;;40.41
63689;BMP280;54895;40.928;14.480;2023-06-19T13:00:01;101528.22;;;39.89
63689;BMP280;54895;40.928;14.480;2023-06-19T13:02:27;101530.56;;;38.85
63689;BMP280;54895;40.928;14.480;2023-06-19T13:04:53;101528.00;;;38.53
63689;BMP280;54895;40.928;14.480;2023-06-19T13:07:20;101528.91;;;38.06
63689;BMP280;54895;40.928;14.480;2023-06-19T13:09:46;101526.75;;;38.20
63689;BMP280;54895;40.928;14.480;2023-06-19T13:12:13;101530.63;;;38.79
63689;BMP280;54895;40.928;14.480;2023-06-19T13:14:39;101528.16;;;38.21
63689;BMP280;54895;40.928;14.480;2023-06-19T13:17:05;101529.63;;;36.79
63689;BMP280;54895;40.928;14.480;2023-06-19T13:19:33;101531.03;;;36.98
63689;BMP280;54895;40.928;14.480;2023-06-19T13:21:59;101533.81;;;36.84
63689;BMP280;54895;40.928;14.480;2023-06-19T13:24:25;101532.16;;;36.26
63689;BMP280;54895;40.928;14.480;2023-06-19T13:26:55;101532.38;;;36.73
63689;BMP280;54895;40.928;14.480;2023-06-19T13:32:54;101528.31;;;37.34
63689;BMP280;54895;40.928;14.480;2023-06-19T13:35:20;101535.91;;;37.91
63689;BMP280;54895;40.928;14.480;2023-06-19T13:37:47;101537.88;;;38.22
63689;BMP280;54895;40.928;14.480;2023-06-19T13:40:13;101527.19;;;38.74
63689;BMP280;54895;40.928;14.480;2023-06-19T13:42:39;101527.59;;;37.65
63689;BMP280;54895;40.928;14.480;2023-06-19T13:45:06;101536.66;;;37.36
63689;BMP280;54895;40.928;14.480;2023-06-19T13:47:32;101528.25;;;37.86
63689;BMP280;54895;40.928;14.480;2023-06-19T13:49:58;101525.47;;;37.72
63689;BMP280;54895;40.928;14.480;2023-06-19T13:52:26;101530.41;;;37.21
63689;BMP280;54895;40.928;14.480;2023-06-19T13:54:52;101531.06;;;37.48
63689;BMP280;54895;40.928;14.480;2023-06-19T13:57:18;101525.44;;;37.91
63689;BMP280;54895;40.928;14.480;2023-06-19T13:59:45;101525.41;;;38.19
63689;BMP280;54895;40.928;14.480;2023-06-19T14:02:11;101534.44;;;38.10
63689;BMP280;54895;40.928;14.480;2023-06-19T14:04:37;101528.31;;;37.56
63689;BMP280;54895;40.928;14.480;2023-06-19T14:07:04;101534.56;;;37.40
63689;BMP280;54895;40.928;14.480;2023-06-19T14:09:31;101535.25;;;37.73
63689;BMP280;54895;40.928;14.480;2023-06-19T14:11:57;101540.72;;;38.06
63689;BMP280;54895;40.928;14.480;2023-06-19T14:14:25;101536.41;;;38.43
63689;BMP280;54895;40.928;14.480;2023-06-19T14:16:51;101543.31;;;38.54
63689;BMP280;54895;40.928;14.480;2023-06-19T14:19:17;101544.88;;;38.07
63689;BMP280;54895;40.928;14.480;2023-06-19T14:21:43;101540.03;;;38.06
63689;BMP280;54895;40.928;14.480;2023-06-19T14:24:10;101546.38;;;37.47
63689;BMP280;54895;40.928;14.480;2023-06-19T14:26:36;101551.22;;;37.28
63689;BMP280;54895;40.928;14.480;2023-06-19T14:32:47;101544.97;;;37.22
63689;BMP280;54895;40.928;14.480;2023-06-19T14:35:14;101541.44;;;36.88
63689;BMP280;54895;40.928;14.480;2023-06-19T14:37:43;101543.97;;;36.26
63689;BMP280;54895;40.928;14.480;2023-06-19T14:40:10;101539.25;;;36.62
63689;BMP280;54895;40.928;14.480;2023-06-19T14:42:37;101546.69;;;36.16
63689;BMP280;54895;40.928;14.480;2023-06-19T14:45:04;101540.09;;;37.07
63689;BMP280;54895;40.928;14.480;2023-06-19T14:47:31;101540.78;;;37.15
63689;BMP280;54895;40.928;14.480;2023-06-19T14:49:57;101530.94;;;36.56